Time;durP1;ratioP1;P1;durP2;ratioP2;P2;SDS_P1;SDS_P2;PMS_P1;PMS_P2;Temp;Humidity;BMP_temperature;BMP_pressure;BME280_temperature;BME280_humidity;BME280_pressure;Samples;Min_cycle;Max_cycle;Signal;HPM_P1;HPM_P2
2022/10/21 00:01:26;;;;;;;5.50;4.53;;;20.20;60.50;;;;;;5014091;28;20184;-62
2022/10/21 00:03:53;;;;;;;6.78;5.30;;;20.20;60.40;;;;;;5012925;28;20192;-61
2022/10/21 00:06:20;;;;;;;6.07;5.32;;;20.20;60.50;;;;;;5014561;28;20275;-61
2022/10/21 00:08:47;;;;;;;5.68;4.78;;;20.10;60.40;;;;;;5014061;28;20219;-61
2022/10/21 00:11:14;;;;;;;5.13;4.63;;;20.20;60.70;;;;;;5014340;28;20204;-62
2022/10/21 00:13:41;;;;;;;5.13;4.70;;;20.10;60.50;;;;;;5012611;28;20772;-62
2022/10/21 00:16:11;;;;;;;6.03;4.45;;;20.10;60.50;;;;;;5013284;28;20200;-61
2022/10/21 00:18:39;;;;;;;5.47;4.80;;;20.10;60.50;;;;;;5014168;28;20216;-62
2022/10/21 00:21:07;;;;;;;7.05;5.10;;;20.10;60.50;;;;;;5013882;28;20567;-61
2022/10/21 00:23:34;;;;;;;5.60;5.05;;;20.10;60.70;;;;;;5012549;28;20236;-62
2022/10/21 00:26:02;;;;;;;6.03;4.40;;;20.10;60.60;;;;;;5012496;28;20255;-62
2022/10/21 00:28:29;;;;;;;5.10;4.60;;;20.10;60.60;;;;;;5013791;28;20279;-62
2022/10/21 00:30:56;;;;;;;5.28;4.78;;;20.10;60.70;;;;;;5012460;28;20205;-62
2022/10/21 00:33:25;;;;;;;5.50;5.00;;;20.10;60.70;;;;;;5013726;28;20193;-62
2022/10/21 00:35:52;;;;;;;5.97;4.88;;;20.10;60.50;;;;;;5012233;28;20203;-62
2022/10/21 00:38:19;;;;;;;6.40;4.75;;;20.10;60.60;;;;;;5012289;28;20205;-62
2022/10/21 00:40:46;;;;;;;5.85;5.25;;;20.10;60.70;;;;;;5012995;28;20189;-62
2022/10/21 00:43:14;;;;;;;5.65;4.78;;;20.00;60.50;;;;;;5012309;28;20592;-62
2022/10/21 00:45:41;;;;;;;5.22;4.72;;;20.00;60.70;;;;;;5012431;28;20193;-62
2022/10/21 00:48:09;;;;;;;5.50;5.00;;;20.00;60.60;;;;;;5013602;28;20188;-61
2022/10/21 00:50:39;;;;;;;7.35;5.15;;;20.00;60.50;;;;;;5013564;28;20193;-62
2022/10/21 00:53:07;;;;;;;6.10;5.50;;;20.00;60.70;;;;;;5013840;28;20272;-62
2022/10/21 00:55:37;;;;;;;5.53;4.63;;;20.00;60.70;;;;;;5013334;28;20212;-62
2022/10/21 00:58:04;;;;;;;4.93;4.50;;;20.00;60.70;;;;;;5012580;28;20193;-62
2022/10/21 01:00:31;;;;;;;5.65;4.60;;;20.00;60.70;;;;;;5013555;28;20263;-62
2022/10/21 01:02:58;;;;;;;6.15;4.57;;;20.00;60.80;;;;;;5022005;23;20228;-62
2022/10/21 01:05:25;;;;;;;5.65;5.05;;;20.00;60.60;;;;;;5013751;28;20217;-61
2022/10/21 01:07:53;;;;;;;5.72;5.13;;;20.00;60.70;;;;;;5012287;28;20213;-62
2022/10/21 01:10:21;;;;;;;5.90;5.00;;;19.90;60.70;;;;;;5013556;28;20725;-62
2022/10/21 01:12:55;;;;;;;6.03;4.70;;;19.90;60.70;;;;;;5012581;28;20200;-62
2022/10/21 01:15:25;;;;;;;5.20;4.80;;;19.90;60.70;;;;;;5013670;28;20232;-61
2022/10/21 01:17:55;;;;;;;7.22;4.35;;;19.90;60.70;;;;;;5013669;28;20761;-62
2022/10/21 01:20:42;;;;;;;5.65;5.03;;;19.90;60.70;;;;;;5012301;28;20221;-62
2022/10/21 01:23:43;;;;;;;5.03;4.53;;;20.00;60.90;;;;;;5012569;28;20650;-62
2022/10/21 01:26:35;;;;;;;4.88;4.47;;;19.90;61.70;;;;;;5013419;28;20193;-62
2022/10/21 01:29:20;;;;;;;6.03;4.57;;;19.90;60.80;;;;;;4999945;28;20308;-61
2022/10/21 01:31:49;;;;;;;5.40;4.90;;;19.90;61.60;;;;;;5014560;28;20185;-63
2022/10/21 01:34:19;;;;;;;5.55;4.90;;;19.90;60.80;;;;;;5012476;28;20720;-62
2022/10/21 01:36:48;;;;;;;4.93;4.43;;;19.90;60.90;;;;;;5012682;28;20255;-62
2022/10/21 01:39:19;;;;;;;5.50;5.00;;;19.90;60.90;;;;;;5013777;28;20209;-62
2022/10/21 01:41:48;;;;;;;5.20;4.70;;;19.90;60.90;;;;;;5014406;28;20181;-63
2022/10/21 01:44:20;;;;;;;4.93;4.53;;;19.80;60.80;;;;;;5029147;28;20200;-62
2022/10/21 01:46:49;;;;;;;4.90;4.50;;;19.90;60.90;;;;;;5014698;28;20205;-64
2022/10/21 01:49:18;;;;;;;5.63;4.75;;;19.90;61.10;;;;;;5012548;28;20221;-62
2022/10/21 01:51:45;;;;;;;5.15;4.65;;;19.80;60.90;;;;;;5015670;28;20197;-61
2022/10/21 01:54:14;;;;;;;7.97;5.20;;;19.90;61.00;;;;;;5016059;28;20221;-62
2022/10/21 01:56:41;;;;;;;6.22;4.70;;;19.80;60.90;;;;;;5016094;28;20197;-61
2022/10/21 01:59:08;;;;;;;4.93;4.43;;;19.80;61.00;;;;;;5017364;28;20209;-62
2022/10/21 02:01:36;;;;;;;7.57;5.25;;;19.80;61.00;;;;;;5015975;28;20346;-61
2022/10/21 02:04:04;;;;;;;5.32;4.85;;;19.80;61.10;;;;;;5018271;28;20235;-62
2022/10/21 02:06:31;;;;;;;5.03;4.50;;;19.80;61.00;;;;;;5017457;28;20221;-62
2022/10/21 02:08:58;;;;;;;8.73;4.80;;;19.80;61.00;;;;;;5032221;28;20220;-63
2022/10/21 02:11:25;;;;;;;6.18;4.88;;;19.80;61.10;;;;;;5017040;28;20189;-62
2022/10/21 02:13:56;;;;;;;5.70;4.63;;;19.80;61.00;;;;;;5016774;28;20193;-62
2022/10/21 02:16:26;;;;;;;5.15;4.65;;;19.80;61.00;;;;;;5016946;28;20185;-62
2022/10/21 02:18:54;;;;;;;5.10;4.60;;;19.80;61.10;;;;;;5016461;28;20710;-62
2022/10/21 02:21:23;;;;;;;5.18;4.68;;;19.80;61.00;;;;;;5016460;28;20232;-62
2022/10/21 02:23:53;;;;;;;5.28;4.78;;;19.90;61.20;;;;;;5016437;28;20243;-62
2022/10/21 02:26:20;;;;;;;5.60;5.10;;;19.80;61.00;;;;;;5016216;28;20271;-62
2022/10/21 02:28:47;;;;;;;6.40;4.90;;;19.80;61.00;;;;;;5016074;28;20251;-62
2022/10/21 02:31:19;;;;;;;5.53;4.80;;;19.80;61.90;;;;;;5031206;28;20201;-62
2022/10/21 02:33:54;;;;;;;5.32;4.28;;;19.80;61.00;;;;;;5015833;28;20181;-62
2022/10/21 02:36:26;;;;;;;5.05;4.55;;;19.80;61.00;;;;;;5014661;28;20188;-61
2022/10/21 02:38:55;;;;;;;5.60;4.78;;;19.80;61.00;;;;;;5014496;28;20239;-62
2022/10/21 02:41:23;;;;;;;5.35;4.90;;;19.80;61.00;;;;;;5015892;28;20189;-62
2022/10/21 02:43:52;;;;;;;5.75;5.03;;;19.80;60.90;;;;;;5015902;28;20302;-61
2022/10/21 02:46:19;;;;;;;5.25;4.75;;;19.80;61.00;;;;;;5014431;28;20197;-62
2022/10/21 02:48:47;;;;;;;5.30;4.80;;;19.80;60.90;;;;;;5015789;28;20213;-61
2022/10/21 02:51:14;;;;;;;5.63;5.13;;;19.80;60.90;;;;;;5015545;28;20213;-62
2022/10/21 02:53:43;;;;;;;4.97;4.57;;;19.80;60.90;;;;;;5014420;28;20197;-62
2022/10/21 02:56:12;;;;;;;5.00;4.60;;;19.80;60.90;;;;;;5014331;28;20209;-61
2022/10/21 02:58:40;;;;;;;5.88;4.72;;;19.80;60.90;;;;;;5015648;28;20585;-61
2022/10/21 03:01:07;;;;;;;4.78;4.38;;;19.80;60.90;;;;;;5015414;28;20189;-62
2022/10/21 03:03:34;;;;;;;5.43;4.75;;;19.80;60.90;;;;;;5015195;28;20228;-62
2022/10/21 03:06:01;;;;;;;5.43;4.93;;;19.80;60.90;;;;;;5015326;28;20185;-62
2022/10/21 03:08:28;;;;;;;5.22;4.72;;;19.80;60.90;;;;;;5013956;28;20670;-62
2022/10/21 03:10:57;;;;;;;5.10;4.57;;;19.80;60.90;;;;;;5015188;28;20185;-62
2022/10/21 03:13:24;;;;;;;4.85;4.35;;;19.80;61.00;;;;;;5015336;28;20197;-62
2022/10/21 03:15:51;;;;;;;4.45;4.05;;;19.80;61.10;;;;;;5015237;28;20212;-62
2022/10/21 03:18:18;;;;;;;5.15;4.20;;;19.90;61.20;;;;;;5015206;28;20189;-61
2022/10/21 03:20:48;;;;;;;4.60;4.20;;;19.90;61.10;;;;;;5013794;28;20203;-62
2022/10/21 03:23:16;;;;;;;4.78;4.30;;;19.90;61.10;;;;;;5013902;28;20208;-61
2022/10/21 03:25:43;;;;;;;4.45;4.05;;;19.90;61.00;;;;;;5013972;28;20224;-62
2022/10/21 03:28:11;;;;;;;4.85;3.90;;;19.90;60.80;;;;;;5013715;28;20203;-61
2022/10/21 03:30:38;;;;;;;4.50;4.10;;;19.90;60.60;;;;;;5015149;28;20566;-62
2022/10/21 03:33:05;;;;;;;5.10;4.18;;;20.00;60.70;;;;;;5014269;28;20205;-62
2022/10/21 03:35:32;;;;;;;5.40;4.07;;;20.00;60.60;;;;;;5013842;28;20235;-62
2022/10/21 03:38:01;;;;;;;4.38;3.97;;;20.10;60.50;;;;;;5013662;28;20228;-61
2022/10/21 03:40:29;;;;;;;4.82;4.25;;;20.00;60.30;;;;;;5013869;28;20212;-61
2022/10/21 03:42:56;;;;;;;4.60;4.20;;;20.10;60.40;;;;;;5014419;28;20247;-62
2022/10/21 03:45:24;;;;;;;5.05;4.65;;;20.10;60.40;;;;;;5015412;28;20677;-62
2022/10/21 03:47:51;;;;;;;4.70;4.30;;;20.10;60.20;;;;;;5013726;28;20555;-62
2022/10/21 03:50:19;;;;;;;4.63;4.20;;;20.20;60.20;;;;;;5030030;28;20722;-62
2022/10/21 03:52:45;;;;;;;4.63;4.22;;;20.10;60.00;;;;;;5014799;28;20197;-61
2022/10/21 03:55:12;;;;;;;4.70;4.20;;;20.20;60.10;;;;;;5013369;28;20216;-61
2022/10/21 03:57:39;;;;;;;4.90;4.40;;;20.20;60.10;;;;;;5014724;28;20188;-61
2022/10/21 04:00:08;;;;;;;4.90;4.50;;;20.20;60.00;;;;;;5014194;28;20208;-62
2022/10/21 04:02:40;;;;;;;4.38;4.07;;;20.20;60.00;;;;;;5014638;28;20212;-62
2022/10/21 04:05:08;;;;;;;4.85;4.45;;;20.20;59.90;;;;;;5014144;28;20556;-63
2022/10/21 04:07:35;;;;;;;4.20;3.80;;;20.20;60.00;;;;;;5012853;28;20228;-62
2022/10/21 04:10:02;;;;;;;4.85;4.45;;;20.20;60.00;;;;;;5013007;28;20220;-62
2022/10/21 04:12:29;;;;;;;4.88;4.38;;;20.20;59.90;;;;;;5012917;28;20682;-62
2022/10/21 04:14:56;;;;;;;4.78;4.38;;;20.30;60.00;;;;;;5011940;28;20224;-62
2022/10/21 04:17:23;;;;;;;5.10;4.63;;;20.30;59.90;;;;;;5012841;28;20200;-61
2022/10/21 04:19:52;;;;;;;4.82;4.30;;;20.30;59.80;;;;;;5013954;28;20227;-61
2022/10/21 04:22:19;;;;;;;4.88;4.50;;;20.30;59.80;;;;;;5012549;28;20196;-62
2022/10/21 04:24:46;;;;;;;4.95;4.30;;;20.30;59.80;;;;;;5012604;28;20192;-62
2022/10/21 04:27:13;;;;;;;6.18;4.60;;;20.30;59.80;;;;;;5012427;28;20208;-61
2022/10/21 04:29:40;;;;;;;5.00;4.60;;;20.30;59.80;;;;;;5013659;28;20260;-61
2022/10/21 04:32:07;;;;;;;4.85;4.45;;;20.30;59.80;;;;;;5012513;28;20578;-61
2022/10/21 04:34:35;;;;;;;4.90;4.47;;;20.30;59.80;;;;;;5013719;28;20192;-61
2022/10/21 04:37:03;;;;;;;5.53;4.68;;;20.30;59.80;;;;;;5013814;28;20203;-62
2022/10/21 04:39:30;;;;;;;6.55;5.03;;;20.30;59.70;;;;;;5013505;28;20209;-62
2022/10/21 04:41:57;;;;;;;5.35;4.70;;;20.30;59.90;;;;;;5013741;28;20247;-62
2022/10/21 04:44:24;;;;;;;6.65;4.57;;;20.30;60.00;;;;;;5013916;28;20207;-61
2022/10/21 04:46:51;;;;;;;4.65;4.28;;;20.30;60.40;;;;;;5013662;28;20186;-63
2022/10/21 04:49:18;;;;;;;6.65;4.70;;;20.20;60.50;;;;;;5013648;28;20213;-63
2022/10/21 04:51:45;;;;;;;5.20;4.70;;;20.30;61.50;;;;;;5013656;28;20582;-62
2022/10/21 04:54:14;;;;;;;6.95;4.60;;;20.30;60.80;;;;;;5012240;28;20243;-62
2022/10/21 04:56:41;;;;;;;8.05;4.43;;;20.30;60.80;;;;;;5012271;28;20311;-62
2022/10/21 04:59:08;;;;;;;5.38;4.90;;;20.30;60.70;;;;;;5013533;28;20228;-63
2022/10/21 05:01:35;;;;;;;4.90;4.07;;;20.30;61.00;;;;;;5013727;28;20258;-63
2022/10/21 05:04:02;;;;;;;4.55;4.15;;;20.30;61.10;;;;;;5013643;28;20181;-62
2022/10/21 05:06:30;;;;;;;4.93;4.30;;;20.30;61.10;;;;;;5013654;28;20197;-62
2022/10/21 05:08:57;;;;;;;6.32;4.70;;;20.30;61.10;;;;;;5013608;28;20208;-62
2022/10/21 05:11:26;;;;;;;5.88;5.07;;;20.30;61.10;;;;;;5013586;28;20180;-62
2022/10/21 05:13:53;;;;;;;5.28;4.25;;;20.30;61.10;;;;;;5013857;28;20197;-63
2022/10/21 05:16:20;;;;;;;4.88;4.45;;;20.30;61.10;;;;;;5012569;28;20220;-63
2022/10/21 05:18:46;;;;;;;6.18;4.82;;;20.30;61.30;;;;;;5013422;28;20671;-62
2022/10/21 05:21:13;;;;;;;4.55;4.15;;;20.30;61.20;;;;;;5013438;28;20199;-63
2022/10/21 05:23:40;;;;;;;7.43;4.70;;;20.30;61.30;;;;;;5013331;28;20227;-62
2022/10/21 05:26:07;;;;;;;5.07;4.30;;;20.30;61.20;;;;;;5014588;28;20189;-62
2022/10/21 05:28:35;;;;;;;4.80;4.40;;;20.20;61.00;;;;;;5015977;28;20280;-62
2022/10/21 05:31:02;;;;;;;4.40;4.00;;;20.20;60.90;;;;;;5017349;28;20689;-62
2022/10/21 05:33:29;;;;;;;5.03;4.40;;;20.30;61.10;;;;;;5017060;28;20312;-62
2022/10/21 05:35:57;;;;;;;6.80;4.68;;;20.20;61.00;;;;;;5015808;28;20212;-62
2022/10/21 05:38:24;;;;;;;5.45;4.10;;;20.20;61.00;;;;;;5015685;28;20200;-62
2022/10/21 05:40:51;;;;;;;5.55;4.40;;;20.20;61.00;;;;;;5016948;28;20199;-62
2022/10/21 05:43:18;;;;;;;4.93;4.45;;;20.20;61.00;;;;;;5015572;28;20196;-62
2022/10/21 05:45:46;;;;;;;7.32;4.70;;;20.20;61.00;;;;;;5015778;28;20201;-62
2022/10/21 05:48:15;;;;;;;5.57;4.35;;;20.10;60.90;;;;;;5015586;28;20204;-63
2022/10/21 05:50:42;;;;;;;5.35;4.80;;;20.10;60.90;;;;;;5015698;28;20291;-62
2022/10/21 05:53:09;;;;;;;5.82;4.43;;;20.20;61.00;;;;;;5017220;28;20199;-63
2022/10/21 05:55:36;;;;;;;4.95;4.50;;;20.10;61.00;;;;;;5016602;28;20236;-62
2022/10/21 05:58:03;;;;;;;4.80;4.30;;;20.10;61.00;;;;;;5015348;28;20200;-62
2022/10/21 06:00:30;;;;;;;5.80;4.35;;;20.10;61.00;;;;;;5016499;28;20213;-62
2022/10/21 06:02:58;;;;;;;5.53;4.15;;;20.10;61.10;;;;;;5015386;28;20215;-62
2022/10/21 06:05:26;;;;;;;8.48;4.07;;;20.10;61.10;;;;;;5015319;28;20196;-62
2022/10/21 06:07:53;;;;;;;4.13;3.67;;;20.10;61.10;;;;;;5016742;28;20678;-63
2022/10/21 06:10:20;;;;;;;3.75;3.45;;;20.10;61.30;;;;;;5016553;28;20221;-62
2022/10/21 06:12:47;;;;;;;5.18;3.85;;;20.10;61.10;;;;;;5015020;28;20230;-62
2022/10/21 06:15:14;;;;;;;4.28;3.88;;;20.20;61.10;;;;;;5016048;28;20503;-62
2022/10/21 06:17:43;;;;;;;4.53;3.78;;;20.20;60.90;;;;;;5014822;28;20204;-62
2022/10/21 06:20:11;;;;;;;4.53;3.90;;;20.20;60.80;;;;;;5016164;28;20220;-62
2022/10/21 06:22:38;;;;;;;4.28;3.80;;;20.30;60.80;;;;;;5014783;28;20205;-62
2022/10/21 06:25:06;;;;;;;4.85;4.10;;;20.30;61.50;;;;;;5016032;28;20197;-62
2022/10/21 06:27:33;;;;;;;6.03;4.00;;;20.30;60.50;;;;;;5014572;28;20662;-63
2022/10/21 06:30:00;;;;;;;5.45;3.63;;;20.30;60.40;;;;;;5015935;28;20213;-62
2022/10/21 06:32:27;;;;;;;4.90;3.97;;;20.30;60.30;;;;;;5014726;28;20193;-62
2022/10/21 06:34:54;;;;;;;4.60;4.20;;;20.30;60.30;;;;;;5014440;28;20602;-62
2022/10/21 06:37:23;;;;;;;5.95;4.03;;;20.30;60.20;;;;;;5015061;28;20291;-62
2022/10/21 06:39:49;;;;;;;5.55;4.47;;;20.40;60.30;;;;;;5014610;28;20216;-62
2022/10/21 06:42:16;;;;;;;4.50;4.07;;;20.40;60.40;;;;;;5014428;28;20232;-62
2022/10/21 06:44:47;;;;;;;5.75;3.80;;;20.40;60.30;;;;;;5014510;28;20248;-61
2022/10/21 06:47:15;;;;;;;4.80;4.30;;;20.40;60.30;;;;;;5014260;28;20208;-61
2022/10/21 06:49:42;;;;;;;5.53;4.00;;;20.40;60.30;;;;;;5015691;28;20209;-61
2022/10/21 06:52:10;;;;;;;6.15;4.20;;;20.40;60.30;;;;;;5015698;28;20193;-61
2022/10/21 06:54:38;;;;;;;4.80;4.25;;;20.40;60.20;;;;;;5015542;28;20192;-61
2022/10/21 06:57:06;;;;;;;4.53;3.85;;;20.40;60.30;;;;;;5015425;28;20216;-61
2022/10/21 06:59:33;;;;;;;5.10;4.30;;;20.40;60.20;;;;;;5015408;28;20212;-61
2022/10/21 07:02:00;;;;;;;4.25;3.85;;;20.40;60.20;;;;;;5014180;28;20682;-61
2022/10/21 07:04:28;;;;;;;5.45;4.25;;;20.40;61.10;;;;;;5015497;28;20316;-61
2022/10/21 07:06:55;;;;;;;5.30;4.30;;;20.40;60.30;;;;;;5014080;28;20193;-61
2022/10/21 07:09:22;;;;;;;7.75;4.13;;;20.40;60.20;;;;;;5015168;28;20278;-62
2022/10/21 07:11:50;;;;;;;6.50;4.55;;;20.40;60.20;;;;;;5015437;28;20220;-61
2022/10/21 07:14:18;;;;;;;4.40;4.00;;;20.40;60.20;;;;;;5030379;28;20238;-61
2022/10/21 07:16:46;;;;;;;5.97;4.10;;;20.40;60.20;;;;;;5015360;28;20212;-61
2022/10/21 07:19:13;;;;;;;4.20;3.80;;;20.40;60.20;;;;;;5013527;28;20595;-61
2022/10/21 07:21:40;;;;;;;4.43;4.03;;;20.40;60.40;;;;;;5013747;28;20197;-61
2022/10/21 07:24:07;;;;;;;4.20;3.78;;;20.40;60.30;;;;;;5015580;28;20197;-62
2022/10/21 07:26:34;;;;;;;5.53;4.10;;;20.30;60.20;;;;;;5013574;28;20220;-61
2022/10/21 07:29:03;;;;;;;5.65;4.20;;;20.40;60.40;;;;;;5014745;28;20221;-61
2022/10/21 07:31:31;;;;;;;6.00;4.00;;;20.40;60.50;;;;;;5014826;28;20201;-61
2022/10/21 07:33:59;;;;;;;4.38;3.97;;;20.30;60.50;;;;;;5015091;28;20534;-61
2022/10/21 07:36:27;;;;;;;4.50;4.10;;;20.30;60.50;;;;;;5013578;28;20212;-61
2022/10/21 07:38:55;;;;;;;4.85;3.95;;;20.30;60.50;;;;;;5014716;28;20213;-61
2022/10/21 07:41:24;;;;;;;3.88;3.58;;;20.30;61.30;;;;;;5014847;28;20199;-61
2022/10/21 07:43:50;;;;;;;5.88;4.03;;;20.30;60.50;;;;;;5014650;28;20215;-61
2022/10/21 07:46:19;;;;;;;5.07;4.00;;;20.30;60.50;;;;;;5013597;28;20231;-61
2022/10/21 07:48:46;;;;;;;4.93;4.35;;;20.40;60.70;;;;;;5014532;28;20565;-61
2022/10/21 07:51:14;;;;;;;5.10;3.53;;;20.30;60.60;;;;;;5014820;28;20192;-61
2022/10/21 07:53:41;;;;;;;5.05;3.92;;;20.30;60.60;;;;;;5014947;28;20193;-61
2022/10/21 07:56:11;;;;;;;4.50;3.65;;;20.30;60.60;;;;;;5013567;28;20622;-61
2022/10/21 07:58:40;;;;;;;5.18;4.07;;;20.40;60.80;;;;;;5014459;28;20234;-61
2022/10/21 08:01:07;;;;;;;3.85;3.53;;;20.30;60.70;;;;;;5014367;28;20192;-61
2022/10/21 08:03:36;;;;;;;4.50;4.00;;;20.40;60.70;;;;;;5014331;28;20617;-61
2022/10/21 08:06:04;;;;;;;5.90;4.10;;;20.40;60.70;;;;;;5013098;28;20196;-61
2022/10/21 08:08:31;;;;;;;5.38;3.92;;;20.40;60.80;;;;;;5013187;28;20621;-61
2022/10/21 08:10:58;;;;;;;4.65;3.80;;;20.40;60.80;;;;;;5013314;28;20192;-61
2022/10/21 08:13:24;;;;;;;4.80;3.90;;;20.40;60.90;;;;;;5133131;22;20637;-71
2022/10/21 08:15:52;;;;;;;5.47;4.13;;;20.30;60.80;;;;;;5014381;28;20305;-71
2022/10/21 08:18:20;;;;;;;5.07;4.35;;;20.40;61.00;;;;;;5013189;28;20207;-71
2022/10/21 08:20:48;;;;;;;4.40;3.97;;;20.40;61.00;;;;;;5013512;28;20697;-71
2022/10/21 08:23:18;;;;;;;4.63;4.13;;;20.30;60.90;;;;;;5013052;28;20251;-71
2022/10/21 08:25:49;;;;;;;6.93;4.40;;;20.30;60.90;;;;;;5012910;28;20299;-71
2022/10/21 08:28:16;;;;;;;5.88;4.43;;;20.30;60.90;;;;;;5012938;28;20259;-71
2022/10/21 08:30:43;;;;;;;4.95;4.28;;;20.40;61.10;;;;;;5013050;28;20204;-71
2022/10/21 08:33:10;;;;;;;4.50;4.05;;;20.30;60.80;;;;;;5012673;28;20197;-71
2022/10/21 08:35:38;;;;;;;4.53;4.13;;;20.30;60.60;;;;;;5013926;28;20230;-71
2022/10/21 08:38:06;;;;;;;3.90;3.55;;;20.30;60.40;;;;;;5012391;28;20229;-72
2022/10/21 08:40:36;;;;;;;4.20;3.83;;;20.40;60.50;;;;;;5012682;28;20201;-71
2022/10/21 08:43:07;;;;;;;4.38;3.97;;;20.40;60.40;;;;;;5012553;28;20573;-71
2022/10/21 08:45:37;;;;;;;4.40;3.83;;;20.50;60.40;;;;;;5012621;28;20220;-71
2022/10/21 08:48:06;;;;;;;4.00;3.53;;;20.50;60.30;;;;;;5012588;28;20559;-71
2022/10/21 08:50:36;;;;;;;4.10;3.67;;;20.50;60.10;;;;;;5012648;28;20197;-71
2022/10/21 08:53:06;;;;;;;4.47;4.07;;;20.50;60.10;;;;;;5012831;28;20224;-71
2022/10/21 08:55:36;;;;;;;3.58;3.25;;;20.50;60.10;;;;;;5012473;28;20267;-71
2022/10/21 08:58:03;;;;;;;4.47;3.85;;;20.50;60.00;;;;;;5012214;28;20691;-71
2022/10/21 09:00:32;;;;;;;4.38;3.97;;;20.50;59.90;;;;;;5013260;28;20666;-71
2022/10/21 09:03:04;;;;;;;4.72;4.15;;;20.60;60.00;;;;;;5013545;28;20204;-71
2022/10/21 09:05:41;;;;;;;4.95;4.45;;;20.60;60.00;;;;;;5012496;28;20582;-71
2022/10/21 09:08:16;;;;;;;5.05;3.92;;;20.60;60.00;;;;;;5012722;28;20169;-72
2022/10/21 09:10:52;;;;;;;3.97;3.60;;;20.60;60.00;;;;;;5013068;28;20631;-71
2022/10/21 09:13:22;;;;;;;3.97;3.63;;;20.60;60.00;;;;;;5012554;28;20212;-71
2022/10/21 09:15:54;;;;;;;5.05;3.50;;;20.60;60.00;;;;;;5012219;28;20311;-73
2022/10/21 09:18:28;;;;;;;4.53;3.70;;;20.60;60.00;;;;;;5012491;28;20212;-73
2022/10/21 09:20:56;;;;;;;4.78;3.65;;;20.60;60.00;;;;;;5012305;28;20192;-73
2022/10/21 09:23:47;;;;;;;5.03;3.70;;;20.60;59.90;;;;;;5012687;28;20254;-73
2022/10/21 09:26:20;;;;;;;3.47;3.17;;;20.60;59.90;;;;;;5012342;28;20609;-74
2022/10/21 09:28:48;;;;;;;3.55;3.25;;;20.60;59.90;;;;;;5012367;28;20189;-74
2022/10/21 09:31:16;;;;;;;3.80;3.40;;;20.60;59.90;;;;;;5012186;28;20226;-74
2022/10/21 09:33:45;;;;;;;4.63;3.38;;;20.60;59.90;;;;;;5013080;28;20195;-73
2022/10/21 09:36:13;;;;;;;5.80;3.42;;;20.70;60.00;;;;;;5012126;28;20295;-73
2022/10/21 09:38:45;;;;;;;4.15;3.30;;;20.70;60.00;;;;;;5012629;28;20224;-73
2022/10/21 09:41:14;;;;;;;3.78;3.38;;;20.70;60.10;;;;;;5013019;28;20197;-73
2022/10/21 09:43:41;;;;;;;3.53;3.05;;;20.70;60.00;;;;;;5012009;28;20201;-73
2022/10/21 09:46:10;;;;;;;3.97;3.03;;;20.70;59.90;;;;;;5012148;28;20659;-73
2022/10/21 09:48:40;;;;;;;4.72;3.40;;;20.70;59.90;;;;;;5012296;28;20204;-73
2022/10/21 09:51:11;;;;;;;3.72;3.20;;;20.70;59.90;;;;;;5013456;28;20246;-73
2022/10/21 09:53:40;;;;;;;3.53;3.22;;;20.80;59.90;;;;;;5012461;28;20211;-73
2022/10/21 09:56:11;;;;;;;5.30;3.47;;;20.80;60.00;;;;;;5012229;28;20196;-73
2022/10/21 09:58:45;;;;;;;5.72;3.40;;;20.80;60.00;;;;;;5012261;28;20216;-73
2022/10/21 10:01:16;;;;;;;4.82;3.30;;;20.80;59.90;;;;;;5013121;28;20204;-73
2022/10/21 10:03:44;;;;;;;4.35;3.10;;;20.80;60.00;;;;;;5013898;28;20192;-73
2022/10/21 10:06:11;;;;;;;4.13;3.28;;;20.80;59.90;;;;;;5012696;28;20311;-73
2022/10/21 10:08:40;;;;;;;4.32;3.40;;;20.80;59.90;;;;;;5012909;28;20197;-74
2022/10/21 10:11:16;;;;;;;4.38;3.25;;;20.80;60.00;;;;;;5013597;28;20205;-74
2022/10/21 10:13:45;;;;;;;3.80;3.38;;;20.80;59.90;;;;;;5014803;28;20204;-74
2022/10/21 10:16:22;;;;;;;3.45;3.15;;;20.90;60.00;;;;;;5016689;28;20204;-74
2022/10/21 10:18:49;;;;;;;3.88;3.00;;;20.90;60.00;;;;;;5017357;28;20549;-74
2022/10/21 10:21:16;;;;;;;4.90;3.20;;;20.90;59.90;;;;;;5018328;28;20204;-74
2022/10/21 10:23:44;;;;;;;4.10;2.75;;;20.80;59.80;;;;;;5020123;28;20661;-74
2022/10/21 10:26:11;;;;;;;3.92;3.28;;;20.90;60.00;;;;;;5019464;28;20201;-74
2022/10/21 10:28:40;;;;;;;3.50;3.10;;;20.90;60.10;;;;;;5015503;28;20651;-73
2022/10/21 10:31:07;;;;;;;3.40;2.65;;;20.90;60.20;;;;;;5015584;28;20286;-73
2022/10/21 10:33:35;;;;;;;3.63;2.92;;;20.80;60.10;;;;;;5015295;28;20690;-73
2022/10/21 10:36:02;;;;;;;4.63;3.15;;;20.90;60.20;;;;;;5015257;28;20220;-73
2022/10/21 10:38:32;;;;;;;3.42;2.92;;;20.90;60.20;;;;;;5015000;28;20216;-73
2022/10/21 10:41:04;;;;;;;3.47;2.60;;;20.90;60.10;;;;;;5015283;28;20278;-73
2022/10/21 10:43:31;;;;;;;2.90;2.67;;;20.90;60.20;;;;;;5015131;28;20200;-74
2022/10/21 10:46:01;;;;;;;3.60;2.70;;;20.90;60.90;;;;;;5016619;28;20295;-72
2022/10/21 10:48:32;;;;;;;3.22;2.90;;;20.90;60.10;;;;;;5014965;28;20203;-72
2022/10/21 10:50:58;;;;;;;3.20;2.80;;;20.90;60.00;;;;;;5031819;28;20201;-71
2022/10/21 10:53:31;;;;;;;2.88;2.42;;;20.90;60.00;;;;;;5014858;28;20205;-71
2022/10/21 10:56:06;;;;;;;3.45;2.97;;;21.00;60.10;;;;;;5015216;28;20275;-71
2022/10/21 10:58:34;;;;;;;2.90;2.60;;;21.00;60.00;;;;;;5015149;28;20216;-71
2022/10/21 11:01:07;;;;;;;3.03;2.72;;;21.00;60.10;;;;;;5015141;28;20221;-71
2022/10/21 11:03:38;;;;;;;3.40;3.10;;;21.00;60.00;;;;;;5014996;28;20212;-71
2022/10/21 11:06:08;;;;;;;2.92;2.67;;;21.00;59.70;;;;;;5015684;28;20640;-71
2022/10/21 11:08:37;;;;;;;2.95;2.75;;;21.00;59.70;;;;;;5015208;28;20197;-71
2022/10/21 11:11:05;;;;;;;3.13;2.83;;;21.00;59.60;;;;;;5014923;28;20243;-71
2022/10/21 11:13:34;;;;;;;3.65;2.60;;;21.00;59.40;;;;;;5014816;28;20205;-72
2022/10/21 11:16:21;;;;;;;2.90;2.67;;;21.00;59.40;;;;;;5016040;28;20223;-71
2022/10/21 11:18:50;;;;;;;2.70;2.35;;;21.10;59.50;;;;;;5014774;28;20223;-72
2022/10/21 11:21:26;;;;;;;2.90;2.47;;;21.10;59.30;;;;;;5014551;28;20203;-72
2022/10/21 11:24:05;;;;;;;2.90;2.70;;;21.10;59.30;;;;;;5014850;28;20624;-72
2022/10/21 11:26:36;;;;;;;3.03;2.72;;;21.10;59.30;;;;;;5015091;28;20616;-72
2022/10/21 11:29:08;;;;;;;2.63;2.42;;;21.20;59.20;;;;;;5014948;28;20200;-72
2022/10/21 11:31:39;;;;;;;3.78;2.63;;;21.20;59.10;;;;;;5015022;28;20200;-72
2022/10/21 11:34:10;;;;;;;4.18;2.97;;;21.20;59.20;;;;;;5014801;28;20220;-72
2022/10/21 11:36:38;;;;;;;2.55;2.35;;;21.20;59.10;;;;;;5015593;28;20190;-72
2022/10/21 11:39:32;;;;;;;3.90;2.60;;;21.20;59.00;;;;;;5031846;28;20223;-71
2022/10/21 11:42:02;;;;;;;3.10;2.47;;;21.20;58.90;;;;;;5012182;28;20228;-71
2022/10/21 11:44:32;;;;;;;2.90;2.60;;;21.30;58.90;;;;;;5015133;28;20236;-71
2022/10/21 11:47:04;;;;;;;2.80;2.60;;;21.30;58.90;;;;;;5014478;28;20247;-72
2022/10/21 11:49:39;;;;;;;3.30;2.50;;;21.30;58.80;;;;;;5014592;28;20201;-71
2022/10/21 11:52:10;;;;;;;2.97;2.60;;;21.40;58.80;;;;;;5014188;28;20281;-71
2022/10/21 11:54:46;;;;;;;2.80;2.55;;;21.40;58.70;;;;;;5015389;28;20217;-71
2022/10/21 11:57:14;;;;;;;3.33;2.58;;;21.40;58.60;;;;;;5015290;28;20262;-71
2022/10/21 11:59:50;;;;;;;2.88;2.63;;;21.40;58.50;;;;;;5013905;28;20228;-71
2022/10/21 12:02:20;;;;;;;3.42;2.70;;;21.50;58.40;;;;;;5014570;28;20192;-71
2022/10/21 12:04:51;;;;;;;2.72;2.53;;;21.50;58.20;;;;;;5013533;28;20231;-72
2022/10/21 12:07:27;;;;;;;3.78;2.50;;;21.50;58.20;;;;;;5013729;28;20193;-71
2022/10/21 12:09:55;;;;;;;3.38;2.70;;;21.50;58.30;;;;;;5013595;28;20753;-71
2022/10/21 12:12:24;;;;;;;2.67;2.30;;;21.50;58.30;;;;;;5014736;28;20201;-71
2022/10/21 12:14:54;;;;;;;2.53;2.33;;;21.50;58.30;;;;;;5013721;28;20209;-71
2022/10/21 12:17:22;;;;;;;3.08;2.78;;;21.50;58.30;;;;;;5014499;28;20209;-72
2022/10/21 12:19:54;;;;;;;3.90;2.40;;;21.50;58.30;;;;;;5030040;28;20200;-71
2022/10/21 12:22:21;;;;;;;2.60;2.40;;;21.50;58.30;;;;;;5015048;28;20231;-71
2022/10/21 12:24:50;;;;;;;2.35;2.15;;;21.50;58.30;;;;;;5014637;28;20287;-71
2022/10/21 12:27:22;;;;;;;3.00;2.60;;;21.50;58.40;;;;;;5013425;28;20299;-71
2022/10/21 12:29:56;;;;;;;2.83;2.60;;;21.50;58.40;;;;;;5013375;28;20189;-71
2022/10/21 12:32:27;;;;;;;2.90;2.53;;;21.50;58.50;;;;;;5013329;28;20199;-71
2022/10/21 12:34:54;;;;;;;2.65;2.38;;;21.50;58.40;;;;;;5013077;28;20220;-71
2022/10/21 12:37:45;;;;;;;2.65;2.28;;;21.50;58.40;;;;;;5013282;28;20279;-71
2022/10/21 12:40:14;;;;;;;4.15;2.47;;;21.50;58.40;;;;;;5014575;28;20196;-72
2022/10/21 12:42:46;;;;;;;2.75;2.30;;;21.50;58.30;;;;;;5014972;28;20571;-72
2022/10/21 12:45:26;;;;;;;2.80;2.60;;;21.50;58.20;;;;;;5013731;28;20236;-71
2022/10/21 12:47:55;;;;;;;2.40;2.20;;;21.50;58.40;;;;;;5013350;28;20192;-72
2022/10/21 12:50:28;;;;;;;2.50;2.30;;;21.50;58.30;;;;;;4997308;28;20200;-74
2022/10/21 12:53:08;;;;;;;2.30;2.10;;;21.50;58.40;;;;;;5013015;28;20215;-74
2022/10/21 12:55:39;;;;;;;2.22;1.92;;;21.50;58.20;;;;;;5013137;28;20224;-74
2022/10/21 12:58:08;;;;;;;2.67;2.35;;;21.50;58.20;;;;;;5012914;28;20242;-74